createdAt,value
2022-08-11T00:02:36.100Z,99.03
2022-08-11T00:05:08.186Z,98.84
2022-08-11T00:07:44.897Z,98.94
2022-08-11T00:10:15.411Z,98.86
2022-08-11T00:12:51.521Z,98.60
2022-08-11T00:15:20.413Z,99.96
2022-08-11T00:17:50.135Z,98.33
2022-08-11T00:20:19.875Z,98.16
2022-08-11T00:22:50.076Z,98.06
2022-08-11T00:25:20.162Z,98.82
2022-08-11T00:27:50.262Z,97.47
2022-08-11T00:30:18.940Z,97.07
2022-08-11T00:32:56.215Z,96.82
2022-08-11T00:35:51.814Z,96.26
2022-08-11T00:38:24.293Z,95.69
2022-08-11T00:40:58.626Z,96.87
2022-08-11T00:43:49.133Z,95.15
2022-08-11T00:46:27.988Z,94.81
2022-08-11T00:49:11.797Z,96.22
2022-08-11T00:52:05.034Z,95.63
2022-08-11T00:55:06.474Z,95.76
2022-08-11T00:57:59.616Z,95.23
2022-08-11T01:00:34.777Z,96.22
2022-08-11T01:03:29.745Z,95.53
2022-08-11T01:06:26.662Z,95.70
2022-08-11T01:09:26.202Z,95.75
2022-08-11T01:12:30.532Z,96.16
2022-08-11T01:15:26.071Z,96.78
2022-08-11T01:18:29.563Z,97.26
2022-08-11T01:21:49.669Z,97.52
2022-08-11T01:24:58.701Z,98.00
2022-08-11T01:28:26.081Z,97.88
2022-08-11T01:31:29.906Z,97.98
2022-08-11T01:34:40.016Z,98.03
2022-08-11T01:37:33.136Z,97.32
2022-08-11T01:40:30.924Z,96.81
2022-08-11T01:44:00.940Z,96.80
2022-08-11T01:46:34.171Z,98.04
2022-08-11T01:50:05.200Z,96.46
2022-08-11T01:52:10.884Z,96.39
2022-08-11T01:54:45.314Z,96.72
2022-08-11T01:57:30.301Z,96.26
2022-08-11T02:00:15.324Z,96.52
2022-08-11T02:02:54.641Z,95.61
2022-08-11T02:05:30.257Z,95.64
2022-08-11T02:08:09.826Z,96.72
2022-08-11T02:11:06.341Z,95.88
2022-08-11T02:13:48.925Z,96.23
2022-08-11T02:16:29.074Z,96.39
2022-08-11T02:19:24.529Z,96.77
2022-08-11T02:22:18.647Z,96.97
2022-08-11T02:25:00.891Z,98.45
2022-08-11T02:27:42.399Z,99.09
2022-08-11T02:30:15.257Z,99.25
2022-08-11T02:33:09.297Z,99.42
2022-08-11T02:35:45.788Z,99.46
2022-08-11T02:38:24.696Z,99.41
2022-08-11T02:41:02.141Z,100.24
2022-08-11T02:43:48.061Z,99.22
2022-08-11T02:46:25.761Z,99.72
2022-08-11T02:49:30.155Z,99.57
2022-08-11T02:52:08.233Z,98.97
2022-08-11T02:54:43.713Z,100.00
2022-08-11T02:57:26.067Z,99.00
2022-08-11T03:00:01.716Z,101.53
2022-08-11T03:02:54.320Z,99.03
2022-08-11T03:05:34.767Z,99.42
2022-08-11T03:08:24.638Z,98.68
2022-08-11T03:11:23.801Z,98.64
2022-08-11T03:14:21.049Z,98.39
2022-08-11T03:16:57.889Z,98.10
2022-08-11T03:19:35.831Z,98.25
2022-08-11T03:22:23.457Z,98.53
2022-08-11T03:25:03.164Z,98.61
2022-08-11T03:27:42.028Z,98.54
2022-08-11T03:30:15.786Z,98.77
2022-08-11T03:33:15.649Z,97.63
2022-08-11T03:35:55.533Z,98.97
2022-08-11T03:38:30.525Z,98.92
2022-08-11T03:42:03.787Z,98.50
2022-08-11T03:44:35.667Z,99.16
2022-08-11T03:47:24.845Z,98.77
2022-08-11T03:50:07.073Z,99.17
2022-08-11T03:52:59.299Z,99.37
2022-08-11T03:55:41.005Z,99.24
2022-08-11T03:58:32.142Z,99.01
2022-08-11T04:01:38.293Z,98.69
2022-08-11T04:04:50.588Z,98.84
2022-08-11T04:07:53.281Z,99.58
2022-08-11T04:10:48.721Z,99.13
2022-08-11T04:14:21.305Z,98.54
2022-08-11T04:17:04.734Z,99.13
2022-08-11T04:20:04.194Z,99.40
2022-08-11T04:24:36.771Z,99.16
2022-08-11T04:26:37.749Z,99.06
2022-08-11T04:29:25.018Z,98.88
2022-08-11T04:32:27.640Z,99.18
2022-08-11T04:35:15.338Z,99.61
2022-08-11T04:37:53.716Z,99.66
2022-08-11T04:40:54.958Z,100.13
2022-08-11T04:44:06.859Z,98.93
2022-08-11T04:47:09.242Z,99.80
2022-08-11T04:50:14.039Z,99.64
2022-08-11T04:53:18.743Z,99.27
2022-08-11T04:56:32.094Z,98.94
2022-08-11T04:59:52.940Z,98.66
2022-08-11T05:03:09.706Z,99.11
2022-08-11T05:05:57.256Z,98.63
2022-08-11T05:09:01.549Z,98.91
2022-08-11T05:12:03.685Z,99.22
2022-08-11T05:14:53.257Z,99.19
2022-08-11T05:17:56.515Z,98.75
2022-08-11T05:20:44.996Z,98.55
2022-08-11T05:23:31.609Z,98.97
2022-08-11T05:26:47.541Z,98.38
2022-08-11T05:29:53.722Z,98.23
2022-08-11T05:32:42.482Z,98.59
2022-08-11T05:36:00.898Z,98.50
2022-08-11T05:38:19.298Z,97.68
2022-08-11T05:41:09.315Z,97.72
2022-08-11T05:44:19.851Z,98.00
2022-08-11T05:47:07.666Z,98.44
2022-08-11T05:49:57.807Z,96.92
2022-08-11T05:52:47.197Z,97.55
2022-08-11T05:55:35.256Z,97.16
2022-08-11T05:58:05.809Z,96.32
2022-08-11T06:00:43.278Z,96.36
2022-08-11T06:03:12.286Z,96.17
2022-08-11T06:05:43.419Z,96.92
2022-08-11T06:08:14.488Z,95.59
2022-08-11T06:10:45.049Z,95.01
2022-08-11T06:13:17.889Z,96.13
2022-08-11T06:15:48.350Z,96.01
2022-08-11T06:18:17.634Z,95.84
2022-08-11T06:20:50.096Z,94.23
2022-08-11T06:23:23.661Z,93.93
2022-08-11T06:25:56.193Z,92.82
2022-08-11T06:28:33.712Z,93.97
2022-08-11T06:31:03.601Z,92.63
2022-08-11T06:33:36.485Z,92.69
2022-08-11T06:36:14.148Z,90.68
2022-08-11T06:38:54.899Z,91.02
2022-08-11T06:41:31.906Z,90.24
2022-08-11T06:44:17.357Z,90.58
2022-08-11T06:46:50.885Z,88.66
2022-08-11T06:49:39.312Z,87.93
2022-08-11T06:52:34.596Z,87.84
2022-08-11T06:55:11.445Z,89.10
2022-08-11T06:58:14.668Z,87.97
2022-08-11T07:00:43.505Z,87.07
2022-08-11T07:03:14.077Z,86.33
2022-08-11T07:05:48.723Z,86.14
2022-08-11T07:08:53.485Z,84.74
2022-08-11T07:12:04.876Z,84.58
2022-08-11T07:14:51.126Z,85.96
2022-08-11T07:17:22.328Z,84.64
2022-08-11T07:20:26.156Z,84.24
2022-08-11T07:23:15.938Z,84.22
2022-08-11T07:26:07.521Z,83.60
2022-08-11T07:28:58.614Z,84.02
2022-08-11T07:31:42.274Z,82.73
2022-08-11T07:34:20.481Z,83.16
2022-08-11T07:36:53.852Z,82.68
2022-08-11T07:39:24.575Z,81.37
2022-08-11T07:41:57.228Z,79.66
2022-08-11T07:44:34.289Z,80.92
2022-08-11T07:47:21.649Z,80.46
2022-08-11T07:50:09.100Z,77.82
2022-08-11T07:52:40.671Z,78.51
2022-08-11T07:55:14.643Z,77.66
2022-08-11T07:58:15.468Z,78.55
2022-08-11T08:01:09.952Z,80.31
2022-08-11T08:03:58.274Z,76.97
2022-08-11T08:06:45.593Z,76.22
2022-08-11T08:09:34.042Z,76.28
2022-08-11T08:12:21.836Z,74.25
2022-08-11T08:15:10.136Z,74.95
2022-08-11T08:18:09.744Z,75.18
2022-08-11T08:20:50.073Z,75.04
2022-08-11T08:23:33.485Z,73.43
2022-08-11T08:26:05.574Z,72.22
2022-08-11T08:28:35.035Z,75.91
2022-08-11T08:31:03.870Z,73.42
2022-08-11T08:33:33.538Z,73.51
2022-08-11T08:36:12.909Z,74.80
2022-08-11T08:38:43.116Z,73.26
2022-08-11T08:41:16.350Z,71.58
2022-08-11T08:43:49.592Z,70.55
2022-08-11T08:46:28.220Z,73.84
2022-08-11T08:48:58.484Z,74.19
2022-08-11T08:52:01.069Z,71.51
2022-08-11T08:54:31.563Z,71.90
2022-08-11T08:57:02.505Z,70.74
2022-08-11T08:59:47.769Z,70.42
2022-08-11T09:02:33.607Z,69.66
2022-08-11T09:05:04.702Z,68.26
2022-08-11T09:07:39.333Z,67.89
2022-08-11T09:10:10.834Z,71.88
2022-08-11T09:12:42.335Z,71.06
2022-08-11T09:15:12.559Z,68.19
2022-08-11T09:17:45.491Z,67.53
2022-08-11T09:20:15.934Z,67.63
2022-08-11T09:23:54.592Z,66.81
2022-08-11T09:26:13.872Z,66.65
2022-08-11T09:28:46.292Z,69.87
2022-08-11T09:31:16.484Z,68.68
2022-08-11T09:33:46.992Z,68.10
2022-08-11T09:36:29.284Z,67.46
2022-08-11T09:39:24.693Z,65.08
2022-08-11T09:42:01.399Z,64.21
2022-08-11T09:44:53.032Z,65.66
2022-08-11T09:47:24.482Z,66.28
2022-08-11T09:50:00.811Z,64.20
2022-08-11T09:52:34.083Z,65.33
2022-08-11T09:55:11.128Z,62.25
2022-08-11T09:58:04.233Z,63.43
2022-08-11T10:00:37.299Z,61.92
2022-08-11T10:03:09.214Z,58.80
2022-08-11T10:05:57.268Z,60.59
2022-08-11T10:08:31.057Z,61.96
2022-08-11T10:10:59.496Z,61.14
2022-08-11T10:14:31.647Z,60.38
2022-08-11T10:16:26.396Z,60.12
2022-08-11T10:18:56.348Z,62.21
2022-08-11T10:21:38.764Z,60.54
2022-08-11T10:24:25.735Z,60.61
2022-08-11T10:26:55.927Z,58.70
2022-08-11T10:29:49.607Z,60.49
2022-08-11T10:32:44.234Z,58.70
2022-08-11T10:35:27.422Z,56.42
2022-08-11T10:38:06.532Z,55.38
2022-08-11T10:40:40.115Z,57.32
2022-08-11T10:43:13.699Z,58.71
2022-08-11T10:46:04.521Z,56.45
2022-08-11T10:48:38.108Z,56.69
2022-08-11T10:51:50.430Z,56.80
2022-08-11T10:54:24.964Z,55.43
2022-08-11T10:57:13.085Z,55.55
2022-08-11T10:59:43.487Z,58.76
2022-08-11T11:02:15.495Z,57.40
2022-08-11T11:04:58.294Z,55.13
2022-08-11T11:07:37.766Z,55.51
2022-08-11T11:10:14.391Z,54.75
2022-08-11T11:13:04.048Z,54.36
2022-08-11T11:15:54.506Z,54.30
2022-08-11T11:18:26.325Z,53.87
2022-08-11T11:20:58.523Z,55.85
2022-08-11T11:23:30.008Z,54.10
2022-08-11T11:26:33.144Z,53.54
2022-08-11T11:29:28.015Z,54.29
2022-08-11T11:32:10.604Z,51.08
2022-08-11T11:34:59.448Z,53.17
2022-08-11T11:37:30.521Z,53.14
2022-08-11T11:39:59.845Z,52.23
2022-08-11T11:42:30.719Z,52.88
2022-08-11T11:45:01.328Z,55.05
2022-08-11T11:47:31.274Z,53.03
2022-08-11T11:50:00.237Z,52.96
2022-08-11T11:52:29.201Z,51.85
2022-08-11T11:55:00.445Z,52.35
2022-08-11T11:57:58.618Z,51.95
2022-08-11T12:00:47.971Z,52.86
2022-08-11T12:03:18.005Z,51.94
2022-08-11T12:05:47.177Z,52.64
2022-08-11T12:08:17.259Z,51.71
2022-08-11T12:10:48.341Z,49.06
2022-08-11T12:13:36.456Z,47.63
2022-08-11T12:16:34.410Z,48.12
2022-08-11T12:18:56.872Z,47.83
2022-08-11T12:21:26.004Z,49.23
2022-08-11T12:24:14.409Z,49.37
2022-08-11T12:27:15.966Z,48.21
2022-08-11T12:29:54.539Z,48.44
2022-08-11T12:32:25.709Z,47.38
2022-08-11T12:34:57.287Z,47.84
2022-08-11T12:37:31.434Z,48.69
2022-08-11T12:40:43.589Z,48.56
2022-08-11T12:43:38.265Z,47.63
2022-08-11T12:46:18.334Z,49.02
2022-08-11T12:49:07.239Z,48.83
2022-08-11T12:52:11.653Z,46.97
2022-08-11T12:54:51.495Z,49.20
2022-08-11T12:57:44.452Z,48.96
2022-08-11T13:00:31.479Z,47.83
2022-08-11T13:03:19.596Z,47.47
2022-08-11T13:05:49.648Z,46.82
2022-08-11T13:08:19.301Z,49.88
2022-08-11T13:11:05.820Z,47.41
2022-08-11T13:13:55.878Z,47.54
2022-08-11T13:16:24.246Z,47.54
2022-08-11T13:18:54.493Z,47.19
2022-08-11T13:21:24.049Z,47.54
2022-08-11T13:24:01.691Z,46.57
2022-08-11T13:26:43.114Z,49.81
2022-08-11T13:29:19.524Z,47.23
2022-08-11T13:31:48.459Z,47.63
2022-08-11T13:34:20.397Z,46.73
2022-08-11T13:36:52.312Z,45.07
2022-08-11T13:39:23.914Z,45.59
2022-08-11T13:41:56.763Z,45.60
2022-08-11T13:44:28.381Z,48.07
2022-08-11T13:47:01.546Z,46.02
2022-08-11T13:49:32.642Z,46.09
2022-08-11T13:52:01.257Z,46.70
2022-08-11T13:54:33.065Z,46.87
2022-08-11T13:57:08.136Z,46.64
2022-08-11T13:59:51.725Z,46.15
2022-08-11T14:02:28.425Z,45.79
2022-08-11T14:05:04.083Z,48.11
2022-08-11T14:07:38.179Z,44.77
2022-08-11T14:10:09.006Z,45.50
2022-08-11T14:12:57.158Z,42.62
2022-08-11T14:15:28.867Z,43.33
2022-08-11T14:18:03.372Z,44.26
2022-08-11T14:20:49.659Z,42.97
2022-08-11T14:23:19.182Z,42.12
2022-08-11T14:26:02.838Z,44.63
2022-08-11T14:28:41.695Z,42.79
2022-08-11T14:31:14.003Z,42.36
2022-08-11T14:34:00.643Z,41.33
2022-08-11T14:36:35.556Z,43.94
2022-08-11T14:39:09.166Z,43.13
2022-08-11T14:42:09.929Z,42.87
2022-08-11T14:45:02.959Z,42.54
2022-08-11T14:47:34.749Z,41.57
2022-08-11T14:50:11.800Z,40.55
2022-08-11T14:52:47.907Z,40.32
2022-08-11T14:55:34.321Z,39.60
2022-08-11T14:58:03.593Z,40.49
2022-08-11T15:00:34.319Z,41.43
2022-08-11T15:03:12.983Z,40.34
2022-08-11T15:05:56.399Z,39.39
2022-08-11T15:08:47.364Z,41.53
2022-08-11T15:11:36.276Z,38.52
2022-08-11T15:14:07.285Z,38.63
2022-08-11T15:16:54.973Z,38.11
2022-08-11T15:19:27.480Z,38.75
2022-08-11T15:22:13.212Z,39.03
2022-08-11T15:24:43.052Z,38.87
2022-08-11T15:27:32.310Z,38.43
2022-08-11T15:30:32.797Z,39.01
2022-08-11T15:33:23.548Z,38.98
2022-08-11T15:36:10.861Z,40.26
2022-08-11T15:38:44.324Z,39.43
2022-08-11T15:41:33.986Z,40.97
2022-08-11T15:45:01.729Z,37.79
2022-08-11T15:47:35.964Z,38.08
2022-08-11T15:50:11.075Z,38.53
2022-08-11T15:52:51.020Z,38.80
2022-08-11T15:55:20.580Z,38.21
2022-08-11T15:58:06.693Z,38.51
2022-08-11T16:01:01.261Z,38.46
2022-08-11T16:04:08.176Z,36.38
2022-08-11T16:06:47.740Z,37.85
2022-08-11T16:09:22.286Z,37.17
2022-08-11T16:11:51.374Z,37.70
2022-08-11T16:14:39.214Z,36.23
2022-08-11T16:17:09.342Z,37.68
2022-08-11T16:19:38.639Z,36.91
2022-08-11T16:22:11.393Z,36.81
2022-08-11T16:27:05.336Z,37.24
2022-08-11T16:27:35.041Z,38.05
2022-08-11T16:30:06.975Z,36.98
2022-08-11T16:32:38.224Z,36.07
2022-08-11T16:35:27.196Z,37.12
2022-08-11T16:38:15.260Z,36.42
2022-08-11T16:40:44.967Z,37.44
2022-08-11T16:43:35.444Z,36.15
2022-08-11T16:46:24.212Z,35.83
2022-08-11T16:48:53.824Z,35.72
2022-08-11T16:51:23.046Z,35.14
2022-08-11T16:54:05.251Z,35.60
2022-08-11T16:56:38.639Z,36.11
2022-08-11T16:59:16.587Z,37.25
2022-08-11T17:01:54.393Z,39.04
2022-08-11T17:04:55.005Z,37.59
2022-08-11T17:07:43.477Z,38.01
2022-08-11T17:10:51.257Z,40.38
2022-08-11T17:13:27.157Z,38.35
2022-08-11T17:16:12.219Z,38.20
2022-08-11T17:18:58.628Z,41.23
2022-08-11T17:21:30.054Z,40.07
2022-08-11T17:24:08.116Z,42.36
2022-08-11T17:26:58.233Z,41.75
2022-08-11T17:29:30.049Z,42.33
2022-08-11T17:32:18.023Z,46.00
2022-08-11T17:35:07.001Z,46.45
2022-08-11T17:37:37.737Z,46.22
2022-08-11T17:40:11.289Z,47.34
2022-08-11T17:42:58.642Z,47.98
2022-08-11T17:45:46.161Z,49.37
2022-08-11T17:48:27.752Z,48.79
2022-08-11T17:51:01.176Z,50.13
2022-08-11T17:54:15.287Z,49.28
2022-08-11T17:56:56.530Z,49.84
2022-08-11T17:59:43.829Z,51.88
2022-08-11T18:02:37.891Z,50.85
2022-08-11T18:05:12.713Z,51.55
2022-08-11T18:08:01.698Z,51.28
2022-08-11T18:10:49.554Z,50.84
2022-08-11T18:13:37.173Z,51.51
2022-08-11T18:16:23.538Z,52.00
2022-08-11T18:19:08.926Z,51.69
2022-08-11T18:22:03.518Z,52.43
2022-08-11T18:25:05.805Z,52.85
2022-08-11T18:27:53.191Z,52.99
2022-08-11T18:30:40.063Z,53.32
2022-08-11T18:36:38.641Z,53.08
2022-08-11T18:39:27.711Z,52.85
2022-08-11T18:42:19.548Z,52.74
2022-08-11T18:45:18.441Z,52.44
2022-08-11T18:48:06.590Z,54.52
2022-08-11T18:51:28.073Z,53.49
2022-08-11T18:54:04.143Z,54.87
2022-08-11T18:56:50.463Z,55.61
2022-08-11T18:59:42.572Z,54.50
2022-08-11T19:02:29.316Z,54.23
2022-08-11T19:05:18.139Z,54.23
2022-08-11T19:08:07.703Z,54.30
2022-08-11T19:10:54.509Z,55.09
2022-08-11T19:13:43.830Z,56.19
2022-08-11T19:16:32.655Z,55.79
2022-08-11T19:19:19.129Z,56.34
2022-08-11T19:22:06.040Z,55.84
2022-08-11T19:24:53.544Z,56.61
2022-08-11T19:27:42.820Z,56.44
2022-08-11T19:30:29.771Z,56.60
2022-08-11T19:33:18.393Z,56.95
2022-08-11T19:36:25.357Z,57.20
2022-08-11T19:39:13.091Z,57.13
2022-08-11T19:42:00.561Z,57.49
2022-08-11T19:44:47.244Z,57.46
2022-08-11T19:47:36.435Z,59.36
2022-08-11T19:50:25.058Z,59.95
2022-08-11T19:53:17.295Z,59.82
2022-08-11T19:56:05.153Z,59.67
2022-08-11T19:58:52.156Z,59.67
2022-08-11T20:01:38.011Z,60.74
2022-08-11T20:04:43.699Z,61.86
2022-08-11T20:07:33.483Z,61.05
2022-08-11T20:10:22.857Z,61.36
2022-08-11T20:13:09.941Z,62.17
2022-08-11T20:15:57.576Z,63.91
2022-08-11T20:18:44.015Z,64.06
2022-08-11T20:21:32.083Z,64.49
2022-08-11T20:24:21.175Z,66.98
2022-08-11T20:27:08.169Z,66.95
2022-08-11T20:30:11.226Z,68.07
2022-08-11T20:32:58.497Z,70.03
2022-08-11T20:35:45.898Z,69.86
2022-08-11T20:38:33.787Z,71.76
2022-08-11T20:41:22.386Z,72.16
2022-08-11T20:44:09.663Z,70.81
2022-08-11T20:46:57.732Z,72.08
2022-08-11T20:52:52.788Z,67.76
2022-08-11T20:55:51.838Z,69.74
2022-08-11T20:59:13.322Z,72.35
2022-08-11T21:01:52.038Z,72.80
2022-08-11T21:04:54.787Z,71.37
2022-08-11T21:07:55.143Z,73.84
2022-08-11T21:10:43.771Z,72.45
2022-08-11T21:13:34.146Z,71.46
2022-08-11T21:16:27.242Z,71.53
2022-08-11T21:19:18.295Z,72.77
2022-08-11T21:22:06.250Z,74.86
2022-08-11T21:24:52.939Z,76.81
2022-08-11T21:27:39.920Z,78.46
2022-08-11T21:30:27.309Z,77.15
2022-08-11T21:33:14.172Z,77.50
2022-08-11T21:36:01.342Z,78.24
2022-08-11T21:38:47.712Z,78.25
2022-08-11T21:41:34.436Z,78.93
2022-08-11T21:44:22.338Z,79.64
2022-08-11T21:47:09.410Z,79.37
2022-08-11T21:49:59.390Z,80.07
2022-08-11T21:52:45.533Z,78.82
2022-08-11T21:55:32.582Z,78.99
2022-08-11T21:58:19.243Z,79.30
2022-08-11T22:01:05.400Z,79.17
2022-08-11T22:03:51.056Z,80.31
2022-08-11T22:06:39.779Z,80.91
2022-08-11T22:09:26.270Z,81.04
2022-08-11T22:12:29.950Z,81.45
2022-08-11T22:15:18.155Z,82.42
2022-08-11T22:18:03.758Z,81.03
2022-08-11T22:20:51.338Z,83.10
2022-08-11T22:23:39.465Z,83.73
2022-08-11T22:26:26.820Z,82.92
2022-08-11T22:29:12.637Z,82.70
2022-08-11T22:31:59.672Z,82.10
2022-08-11T22:34:53.421Z,83.24
2022-08-11T22:37:41.020Z,86.12
2022-08-11T22:40:29.707Z,86.83
2022-08-11T22:43:15.517Z,87.01
2022-08-11T22:46:01.597Z,87.44
2022-08-11T22:48:49.095Z,87.54
2022-08-11T22:51:38.214Z,87.80
2022-08-11T22:54:24.484Z,88.17
2022-08-11T22:57:12.337Z,88.02
2022-08-11T22:59:59.479Z,87.70
2022-08-11T23:02:46.851Z,87.54
2022-08-11T23:05:34.191Z,88.23
2022-08-11T23:08:21.403Z,87.51
2022-08-11T23:11:08.453Z,86.83
2022-08-11T23:13:56.268Z,87.84
2022-08-11T23:16:43.771Z,85.71
2022-08-11T23:20:06.742Z,88.15
2022-08-11T23:22:49.606Z,87.94
2022-08-11T23:25:37.173Z,87.68
2022-08-11T23:28:24.975Z,87.89
2022-08-11T23:31:15.773Z,87.74
2022-08-11T23:34:05.184Z,89.38
2022-08-11T23:36:50.879Z,88.19
2022-08-11T23:39:36.558Z,89.75
2022-08-11T23:42:22.912Z,88.08
2022-08-11T23:45:10.272Z,89.24
2022-08-11T23:47:58.761Z,88.32
2022-08-11T23:50:44.670Z,89.41
2022-08-11T23:53:32.071Z,89.56
2022-08-11T23:56:21.783Z,90.15
2022-08-11T23:59:09.146Z,89.50
